Time;durP1;ratioP1;P1;durP2;ratioP2;P2;SDS_P1;SDS_P2;PMS_P1;PMS_P2;Temp;Humidity;BMP_temperature;BMP_pressure;BME280_temperature;BME280_humidity;BME280_pressure;Samples;Min_cycle;Max_cycle;Signal;HPM_P1;HPM_P2
2022/05/05 00:01:44;;;;;;;12.20;8.82;;;10.70;99.90;;;;;;5053664;28;20385;-75
2022/05/05 00:04:11;;;;;;;8.93;7.93;;;10.70;99.90;;;;;;5053792;28;20067;-75
2022/05/05 00:06:38;;;;;;;11.68;9.02;;;10.60;99.90;;;;;;5053823;28;20041;-76
2022/05/05 00:09:05;;;;;;;8.20;7.22;;;10.60;99.90;;;;;;5055218;28;20056;-75
2022/05/05 00:14:24;;;;;;;8.48;7.38;;;10.60;99.90;;;;;;5054454;28;20045;-76
2022/05/05 00:16:51;;;;;;;8.88;7.93;;;10.60;99.90;;;;;;5053885;28;20044;-76
2022/05/05 00:19:18;;;;;;;12.95;9.43;;;10.50;99.90;;;;;;5053680;28;20423;-76
2022/05/05 00:21:45;;;;;;;9.18;8.10;;;10.50;99.90;;;;;;5053339;28;20044;-75
2022/05/05 00:24:12;;;;;;;10.05;8.65;;;10.40;99.90;;;;;;5053308;28;20127;-76
2022/05/05 00:26:39;;;;;;;8.93;8.02;;;10.40;99.90;;;;;;5054518;28;20483;-76
2022/05/05 00:29:06;;;;;;;10.23;8.27;;;10.40;99.90;;;;;;5054880;28;20045;-76
2022/05/05 00:31:33;;;;;;;13.20;8.57;;;10.30;99.90;;;;;;5053779;28;20490;-76
2022/05/05 00:34:00;;;;;;;9.68;7.97;;;10.20;99.90;;;;;;5053125;28;20045;-76
2022/05/05 00:36:27;;;;;;;9.15;7.80;;;10.20;99.90;;;;;;5037391;28;20048;-75
2022/05/05 00:38:54;;;;;;;10.65;8.70;;;10.10;99.90;;;;;;5052950;28;20041;-75
2022/05/05 00:41:21;;;;;;;10.10;8.10;;;10.10;99.90;;;;;;5053137;28;20053;-75
2022/05/05 00:43:48;;;;;;;9.38;8.23;;;10.10;99.90;;;;;;5054264;28;20045;-75
2022/05/05 00:46:15;;;;;;;11.25;8.63;;;10.00;99.90;;;;;;5052843;28;20053;-75
2022/05/05 00:48:44;;;;;;;10.23;8.27;;;10.00;99.90;;;;;;5053298;28;20469;-75
2022/05/05 00:51:11;;;;;;;9.68;8.68;;;10.00;99.90;;;;;;5052747;28;20061;-75
2022/05/05 00:53:38;;;;;;;9.55;8.63;;;9.90;99.90;;;;;;5036317;28;20045;-75
2022/05/05 00:56:10;;;;;;;8.95;8.05;;;9.80;99.90;;;;;;5052789;28;20047;-75
2022/05/05 00:58:37;;;;;;;9.48;7.60;;;9.80;99.90;;;;;;5054479;28;20044;-75
2022/05/05 01:01:04;;;;;;;9.90;8.90;;;9.70;99.90;;;;;;5052819;28;20041;-75
2022/05/05 01:03:33;;;;;;;9.70;8.55;;;9.70;99.90;;;;;;5036692;28;20045;-75
2022/05/05 01:06:02;;;;;;;11.23;8.60;;;9.60;99.90;;;;;;5052761;28;20049;-75
2022/05/05 01:08:29;;;;;;;8.85;7.63;;;9.60;99.90;;;;;;5052621;28;20045;-74
2022/05/05 01:10:56;;;;;;;12.32;8.40;;;9.50;99.90;;;;;;5055052;28;20054;-74
2022/05/05 01:13:25;;;;;;;9.32;7.88;;;9.40;99.90;;;;;;5054764;28;20037;-74
2022/05/05 01:15:52;;;;;;;10.13;8.25;;;9.40;99.90;;;;;;5054248;28;20052;-74
2022/05/05 01:18:19;;;;;;;9.10;8.07;;;9.30;99.90;;;;;;5054002;28;20044;-74
2022/05/05 01:20:48;;;;;;;8.73;7.82;;;9.30;99.90;;;;;;5053500;28;20368;-74
2022/05/05 01:23:15;;;;;;;10.60;8.93;;;9.30;99.90;;;;;;5053775;28;20044;-75
2022/05/05 01:28:31;;;;;;;9.75;7.85;;;9.20;99.90;;;;;;5052782;28;20052;-74
2022/05/05 01:30:58;;;;;;;8.65;7.75;;;9.20;99.90;;;;;;5053909;28;20049;-74
2022/05/05 01:33:26;;;;;;;8.75;7.85;;;9.20;99.90;;;;;;5053551;28;20041;-74
2022/05/05 01:35:58;;;;;;;9.73;8.37;;;9.10;99.90;;;;;;5052243;28;20430;-74
2022/05/05 01:38:26;;;;;;;10.90;8.68;;;9.10;99.90;;;;;;5054823;28;20041;-74
2022/05/05 01:40:53;;;;;;;11.43;8.70;;;9.10;99.90;;;;;;5051754;28;20048;-74
2022/05/05 01:43:23;;;;;;;10.48;8.95;;;9.00;99.90;;;;;;5052861;28;20202;-74
2022/05/05 01:45:50;;;;;;;11.70;9.55;;;9.00;99.90;;;;;;5052996;28;20052;-74
2022/05/05 01:48:17;;;;;;;9.95;8.73;;;9.00;99.90;;;;;;5052901;28;20045;-74
2022/05/05 01:50:44;;;;;;;9.32;8.00;;;8.90;99.90;;;;;;5052113;28;20064;-74
2022/05/05 01:53:11;;;;;;;12.02;9.05;;;8.90;99.90;;;;;;5052306;28;20404;-74
2022/05/05 01:55:38;;;;;;;10.77;8.23;;;8.90;99.90;;;;;;5053151;28;20380;-74
2022/05/05 01:58:05;;;;;;;11.05;9.40;;;8.80;99.90;;;;;;5052935;28;20476;-74
2022/05/05 02:00:32;;;;;;;10.60;8.77;;;8.80;99.90;;;;;;5052776;28;20487;-74
2022/05/05 02:02:59;;;;;;;10.93;8.75;;;8.80;99.90;;;;;;5053984;28;20420;-74
2022/05/05 02:05:26;;;;;;;10.07;9.00;;;8.80;99.90;;;;;;5053847;28;20464;-75
2022/05/05 02:07:53;;;;;;;11.18;8.85;;;8.70;99.90;;;;;;5057050;28;20044;-74
2022/05/05 02:10:20;;;;;;;12.00;9.48;;;8.70;99.90;;;;;;5057471;28;20044;-74
2022/05/05 02:12:48;;;;;;;10.50;8.32;;;8.70;99.90;;;;;;5056868;28;20473;-74
2022/05/05 02:15:15;;;;;;;10.52;8.77;;;8.60;99.90;;;;;;5057620;28;20041;-74
2022/05/05 02:17:42;;;;;;;10.73;9.43;;;8.60;99.90;;;;;;5055691;28;20041;-74
2022/05/05 02:20:13;;;;;;;9.38;7.72;;;8.60;99.90;;;;;;5055256;28;20041;-74
2022/05/05 02:22:40;;;;;;;9.80;8.48;;;8.60;99.90;;;;;;5056382;28;20041;-74
2022/05/05 02:25:08;;;;;;;8.70;7.53;;;8.50;99.90;;;;;;5055505;28;20048;-74
2022/05/05 02:27:48;;;;;;;12.05;8.45;;;8.50;99.90;;;;;;5056642;28;20143;-74
2022/05/05 02:30:17;;;;;;;10.93;8.13;;;8.40;99.90;;;;;;5055061;28;20045;-75
2022/05/05 02:32:44;;;;;;;10.75;9.32;;;8.40;99.90;;;;;;5055075;28;20469;-74
2022/05/05 02:35:11;;;;;;;10.75;7.63;;;8.40;99.90;;;;;;5055257;28;20049;-75
2022/05/05 02:40:23;;;;;;;12.68;8.82;;;8.30;99.90;;;;;;5055943;28;20041;-75
2022/05/05 02:42:50;;;;;;;11.90;8.25;;;8.30;99.90;;;;;;5055724;28;20045;-74
2022/05/05 02:45:17;;;;;;;10.85;7.90;;;8.30;99.90;;;;;;5056261;28;20057;-74
2022/05/05 02:47:46;;;;;;;12.35;9.50;;;8.30;99.90;;;;;;5057047;28;20040;-74
2022/05/05 02:50:13;;;;;;;10.18;8.02;;;8.30;99.90;;;;;;5056130;28;20041;-74
2022/05/05 02:52:40;;;;;;;10.13;7.55;;;8.30;99.90;;;;;;5056611;28;20120;-74
2022/05/05 02:55:07;;;;;;;10.23;8.40;;;8.20;99.90;;;;;;5055825;28;20079;-74
2022/05/05 02:57:34;;;;;;;8.90;7.97;;;8.20;99.90;;;;;;5056093;28;20048;-75
2022/05/05 03:00:03;;;;;;;9.98;8.13;;;8.20;99.90;;;;;;5055676;28;20036;-74
2022/05/05 03:02:31;;;;;;;10.02;8.18;;;8.20;99.90;;;;;;5055880;28;20041;-74
2022/05/05 03:04:58;;;;;;;11.93;8.50;;;8.20;99.90;;;;;;5055593;28;20044;-74
2022/05/05 03:07:25;;;;;;;9.68;7.93;;;8.20;99.90;;;;;;5055544;28;20041;-74
2022/05/05 03:09:52;;;;;;;10.93;7.30;;;8.20;99.90;;;;;;5056474;28;20123;-74
2022/05/05 03:12:19;;;;;;;8.77;7.85;;;8.20;99.90;;;;;;5055475;28;20045;-73
2022/05/05 03:14:52;;;;;;;11.48;8.52;;;8.20;99.90;;;;;;5054350;28;20044;-74
2022/05/05 03:17:19;;;;;;;11.82;9.20;;;8.20;99.90;;;;;;5055534;28;20048;-74
2022/05/05 03:19:46;;;;;;;12.38;7.30;;;8.10;99.90;;;;;;5055319;28;20041;-73
2022/05/05 03:22:13;;;;;;;8.50;7.25;;;8.10;99.90;;;;;;5054944;28;20041;-73
2022/05/05 03:24:40;;;;;;;12.52;8.35;;;8.10;99.90;;;;;;5055810;28;20041;-73
2022/05/05 03:27:07;;;;;;;9.35;7.90;;;8.00;99.90;;;;;;5054115;28;20468;-74
2022/05/05 03:29:33;;;;;;;9.73;7.78;;;8.00;99.90;;;;;;5055116;28;20045;-74
2022/05/05 03:32:00;;;;;;;10.80;8.95;;;8.00;99.90;;;;;;5053916;28;20045;-74
2022/05/05 03:34:27;;;;;;;10.85;9.00;;;7.90;99.90;;;;;;5055339;28;20051;-74
2022/05/05 03:36:54;;;;;;;11.75;8.73;;;7.90;99.90;;;;;;5055256;28;20045;-74
2022/05/05 03:39:21;;;;;;;11.10;7.95;;;7.90;99.90;;;;;;5055311;28;20051;-74
2022/05/05 03:41:48;;;;;;;12.40;9.90;;;7.90;99.90;;;;;;5053964;28;20083;-74
2022/05/05 03:44:15;;;;;;;10.90;8.73;;;7.90;99.90;;;;;;5054822;28;20396;-74
2022/05/05 03:46:42;;;;;;;9.48;7.78;;;7.90;99.90;;;;;;5055118;28;20045;-74
2022/05/05 03:49:10;;;;;;;9.25;8.00;;;7.80;99.90;;;;;;5054957;28;20051;-75
2022/05/05 03:51:37;;;;;;;10.88;8.77;;;7.80;99.90;;;;;;5055006;28;20468;-74
2022/05/05 03:54:04;;;;;;;10.05;7.93;;;7.70;99.90;;;;;;5054987;28;20037;-74
2022/05/05 03:56:32;;;;;;;11.27;8.73;;;7.70;99.90;;;;;;5053848;28;20427;-74
2022/05/05 03:58:59;;;;;;;11.70;8.25;;;7.60;99.90;;;;;;5054873;28;20045;-74
2022/05/05 04:01:26;;;;;;;9.50;7.25;;;7.60;99.90;;;;;;5054624;28;20045;-73
2022/05/05 04:03:53;;;;;;;12.38;9.00;;;7.60;99.90;;;;;;5053655;28;20452;-74
2022/05/05 04:06:20;;;;;;;11.55;8.63;;;7.50;99.90;;;;;;5054426;28;20037;-74
2022/05/05 04:08:47;;;;;;;11.00;8.35;;;7.50;99.90;;;;;;5054313;28;20072;-74
2022/05/05 04:11:13;;;;;;;9.90;7.95;;;7.50;99.90;;;;;;5053939;28;20064;-73
2022/05/05 04:13:40;;;;;;;31.88;9.15;;;7.40;99.90;;;;;;5053918;28;20045;-74
2022/05/05 04:16:08;;;;;;;11.40;9.30;;;7.40;99.90;;;;;;5054114;28;20115;-73
2022/05/05 04:18:35;;;;;;;11.77;8.93;;;7.50;99.90;;;;;;5036617;28;20495;-73
2022/05/05 04:21:02;;;;;;;10.57;8.68;;;7.50;99.90;;;;;;5054079;28;20472;-73
2022/05/05 04:23:29;;;;;;;12.45;9.15;;;7.40;99.90;;;;;;5053650;28;20045;-73
2022/05/05 04:26:12;;;;;;;10.60;7.95;;;7.40;99.90;;;;;;5054881;28;20055;-74
2022/05/05 04:28:43;;;;;;;11.82;8.80;;;7.40;99.90;;;;;;5052188;28;20469;-73
2022/05/05 04:31:13;;;;;;;11.70;8.07;;;7.40;99.90;;;;;;5053976;28;20045;-74
2022/05/05 04:33:41;;;;;;;10.07;8.23;;;7.40;99.90;;;;;;5052797;28;20044;-73
2022/05/05 04:36:08;;;;;;;11.48;8.70;;;7.30;99.90;;;;;;5052985;28;20041;-73
2022/05/05 04:38:35;;;;;;;11.82;8.65;;;7.30;99.90;;;;;;5052938;28;20037;-73
2022/05/05 04:41:02;;;;;;;13.43;9.52;;;7.30;99.90;;;;;;5054660;28;20049;-74
2022/05/05 04:43:29;;;;;;;12.95;9.75;;;7.40;99.90;;;;;;5053158;28;20040;-74
2022/05/05 04:45:56;;;;;;;13.90;9.23;;;7.30;99.90;;;;;;5053418;28;20063;-74
2022/05/05 04:48:23;;;;;;;13.20;9.32;;;7.40;99.90;;;;;;5054784;28;20045;-74
2022/05/05 04:50:49;;;;;;;11.68;9.18;;;7.40;99.90;;;;;;5054080;28;20060;-73
2022/05/05 04:53:16;;;;;;;11.93;9.02;;;7.40;99.90;;;;;;5053519;28;20044;-74
2022/05/05 04:55:43;;;;;;;10.68;8.35;;;7.40;99.90;;;;;;5053609;28;20040;-74
2022/05/05 04:58:10;;;;;;;12.95;9.70;;;7.40;99.90;;;;;;5053454;28;20075;-74
2022/05/05 05:00:39;;;;;;;11.95;9.20;;;7.40;99.90;;;;;;5052245;28;20040;-74
2022/05/05 05:03:32;;;;;;;10.53;9.17;;;7.50;99.90;;;;;;5053825;28;20045;-74
2022/05/05 05:05:52;;;;;;;12.30;9.02;;;7.50;99.90;;;;;;5052964;28;20164;-75
2022/05/05 05:08:19;;;;;;;13.88;9.73;;;7.70;99.90;;;;;;5053711;28;20041;-74
2022/05/05 05:10:46;;;;;;;12.10;9.75;;;8.10;99.90;;;;;;5052494;28;20043;-74
2022/05/05 05:13:15;;;;;;;11.75;8.45;;;8.40;99.90;;;;;;5053664;28;20392;-74
2022/05/05 05:15:42;;;;;;;12.27;10.13;;;8.70;99.90;;;;;;5053302;28;20048;-74
2022/05/05 05:18:10;;;;;;;11.63;9.07;;;8.90;99.90;;;;;;5052887;28;20106;-74
2022/05/05 05:20:36;;;;;;;15.25;9.50;;;8.80;99.90;;;;;;5053413;28;20045;-74
2022/05/05 05:23:03;;;;;;;10.63;8.75;;;8.80;99.90;;;;;;5054311;28;20052;-74
2022/05/05 05:25:30;;;;;;;17.40;11.02;;;8.70;99.90;;;;;;5054274;28;20041;-73
2022/05/05 05:28:02;;;;;;;11.25;10.05;;;8.80;99.90;;;;;;5052865;28;20041;-73
2022/05/05 05:30:39;;;;;;;12.35;9.45;;;8.80;99.90;;;;;;5037204;28;20055;-73
2022/05/05 05:33:06;;;;;;;14.15;10.63;;;8.80;99.90;;;;;;5036121;28;20075;-73
2022/05/05 05:35:33;;;;;;;11.55;9.65;;;8.80;99.90;;;;;;5036595;28;20045;-74
2022/05/05 05:38:00;;;;;;;13.63;10.30;;;8.90;99.90;;;;;;5054228;28;20059;-74
2022/05/05 05:40:27;;;;;;;14.68;9.55;;;8.90;99.90;;;;;;5054580;28;20049;-74
2022/05/05 05:42:55;;;;;;;14.65;10.35;;;9.00;99.90;;;;;;5057056;28;20055;-74
2022/05/05 05:45:22;;;;;;;11.95;9.73;;;9.20;99.90;;;;;;5039518;28;20041;-74
2022/05/05 05:47:49;;;;;;;115.75;102.53;;;9.30;99.90;;;;;;5057290;28;20044;-72
2022/05/05 05:50:16;;;;;;;111.82;98.20;;;9.40;99.90;;;;;;5057796;28;20060;-71
2022/05/05 05:52:43;;;;;;;80.15;70.70;;;9.60;99.90;;;;;;5056029;28;20040;-70
2022/05/05 05:55:10;;;;;;;27.77;22.38;;;9.70;99.90;;;;;;5057716;28;20124;-72
2022/05/05 05:57:36;;;;;;;17.60;13.82;;;9.90;99.90;;;;;;5058070;28;20053;-70
2022/05/05 06:00:04;;;;;;;16.45;12.95;;;10.00;99.90;;;;;;5057610;28;20056;-70
2022/05/05 06:05:18;;;;;;;41.50;34.35;;;10.30;99.90;;;;;;5057881;28;20094;-72
2022/05/05 06:07:45;;;;;;;165.88;129.23;;;10.50;99.90;;;;;;5056617;28;20052;-72
2022/05/05 06:10:12;;;;;;;25.42;21.70;;;10.70;99.90;;;;;;5055844;28;20384;-72
2022/05/05 06:12:39;;;;;;;17.05;13.30;;;10.80;99.90;;;;;;5056331;28;20439;-73
2022/05/05 06:15:06;;;;;;;14.00;12.50;;;10.80;99.90;;;;;;5056655;28;20048;-72
2022/05/05 06:17:34;;;;;;;16.33;11.70;;;11.00;99.90;;;;;;5057415;28;20045;-73
2022/05/05 06:20:01;;;;;;;18.42;11.15;;;11.20;99.90;;;;;;5056774;28;20041;-78
2022/05/05 06:22:28;;;;;;;12.10;10.15;;;11.30;99.90;;;;;;5055414;28;20045;-77
2022/05/05 06:24:55;;;;;;;12.48;9.27;;;11.40;99.90;;;;;;5055568;28;20539;-77
2022/05/05 06:27:23;;;;;;;12.40;10.73;;;11.60;99.90;;;;;;5055919;28;20460;-80
2022/05/05 06:29:50;;;;;;;38.95;30.85;;;11.70;99.90;;;;;;5055155;28;20037;-73
2022/05/05 06:32:19;;;;;;;36.42;29.55;;;11.90;99.90;;;;;;5057252;28;20048;-71
2022/05/05 06:34:46;;;;;;;;;;;12.00;99.90;;;;;;5057441;28;20047;-72
2022/05/05 06:37:13;;;;;;;14.95;12.40;;;12.00;99.90;;;;;;5056136;28;19924;-78
2022/05/05 06:39:40;;;;;;;13.13;9.90;;;12.10;99.90;;;;;;5055777;28;20040;-76
2022/05/05 06:42:08;;;;;;;10.43;9.32;;;12.10;99.90;;;;;;5056341;28;20123;-76
2022/05/05 06:44:35;;;;;;;13.50;10.77;;;12.10;99.90;;;;;;5056312;28;20052;-74
2022/05/05 06:47:03;;;;;;;12.60;9.80;;;12.20;99.90;;;;;;5055926;28;20040;-73
2022/05/05 06:49:31;;;;;;;12.45;8.55;;;12.20;99.90;;;;;;5056030;28;20037;-70
2022/05/05 06:51:59;;;;;;;12.35;9.23;;;12.20;99.90;;;;;;5038037;28;20392;-73
2022/05/05 06:54:32;;;;;;;12.60;9.38;;;12.20;99.90;;;;;;5056117;28;20132;-72
2022/05/05 06:56:59;;;;;;;11.85;9.68;;;12.30;99.90;;;;;;5056787;28;20044;-75
2022/05/05 06:59:26;;;;;;;14.50;10.50;;;12.30;99.90;;;;;;5055112;28;20037;-75
2022/05/05 07:01:53;;;;;;;13.50;10.07;;;12.30;99.90;;;;;;5055722;28;20041;-74
2022/05/05 07:07:13;;;;;;;11.77;10.02;;;12.40;99.90;;;;;;5054699;28;20041;-74
2022/05/05 07:12:29;;;;;;;14.43;9.00;;;12.60;99.90;;;;;;5054543;28;20052;-75
2022/05/05 07:14:56;;;;;;;12.13;9.05;;;12.70;99.90;;;;;;5055707;28;20417;-69
2022/05/05 07:17:24;;;;;;;9.07;8.18;;;12.80;99.90;;;;;;5054558;28;20047;-76
2022/05/05 07:19:51;;;;;;;12.68;8.57;;;12.90;99.90;;;;;;5054460;28;20044;-72
2022/05/05 07:22:18;;;;;;;11.13;8.35;;;12.90;99.90;;;;;;5053987;28;20044;-73
2022/05/05 07:24:46;;;;;;;10.95;8.63;;;13.00;99.90;;;;;;5055263;28;20048;-75
2022/05/05 07:27:13;;;;;;;9.82;7.82;;;13.00;99.90;;;;;;5055463;28;20044;-72
2022/05/05 07:29:41;;;;;;;12.75;8.75;;;13.00;99.90;;;;;;5053973;28;20048;-73
2022/05/05 07:32:08;;;;;;;10.98;8.18;;;13.10;99.90;;;;;;5053906;28;20472;-73
2022/05/05 07:34:35;;;;;;;8.68;7.38;;;13.20;99.90;;;;;;5055330;28;20080;-73
2022/05/05 07:37:03;;;;;;;9.27;8.15;;;13.20;99.90;;;;;;5054851;28;20055;-74
2022/05/05 07:39:30;;;;;;;10.98;8.57;;;13.20;99.90;;;;;;5055239;28;20052;-73
2022/05/05 07:41:56;;;;;;;10.30;8.10;;;13.30;99.90;;;;;;5055079;28;20075;-72
2022/05/05 07:44:23;;;;;;;8.20;7.22;;;13.40;99.90;;;;;;5055933;28;20369;-74
2022/05/05 07:46:50;;;;;;;9.05;6.47;;;13.70;99.90;;;;;;5053612;28;20124;-74
2022/05/05 07:49:17;;;;;;;8.85;6.82;;;13.80;99.90;;;;;;5054292;28;20045;-75
2022/05/05 07:51:44;;;;;;;12.43;9.52;;;13.90;99.90;;;;;;5053566;28;20059;-73
2022/05/05 07:56:56;;;;;;;9.90;7.78;;;13.80;99.90;;;;;;5055981;28;20049;-72
2022/05/05 07:59:23;;;;;;;9.80;6.93;;;13.90;99.90;;;;;;5054007;28;20477;-72
2022/05/05 08:01:50;;;;;;;9.95;6.50;;;14.00;99.90;;;;;;5054762;28;20052;-75
2022/05/05 08:04:17;;;;;;;11.63;7.13;;;14.00;99.90;;;;;;5053131;28;20052;-73
2022/05/05 08:06:44;;;;;;;8.65;6.32;;;14.00;99.90;;;;;;5053413;28;20469;-74
2022/05/05 08:09:11;;;;;;;8.82;6.10;;;14.10;99.90;;;;;;5054656;28;20049;-74
2022/05/05 08:11:38;;;;;;;11.07;6.75;;;14.10;99.90;;;;;;5055290;28;20045;-75
2022/05/05 08:14:05;;;;;;;24.10;18.95;;;14.20;99.90;;;;;;5054546;28;20037;-73
2022/05/05 08:16:32;;;;;;;160.38;136.00;;;14.20;99.90;;;;;;5052998;28;20044;-75
2022/05/05 08:18:59;;;;;;;17.80;15.15;;;14.30;99.90;;;;;;5054726;28;20048;-74
2022/05/05 08:21:26;;;;;;;9.20;8.23;;;14.40;99.90;;;;;;5054376;28;20052;-74
2022/05/05 08:29:24;;;;;;;8.73;6.05;;;14.50;99.90;;;;;;5054083;28;20048;-73
2022/05/05 08:31:51;;;;;;;7.45;5.93;;;14.50;99.90;;;;;;5054228;28;20045;-75
2022/05/05 08:34:18;;;;;;;6.20;5.35;;;14.50;99.90;;;;;;5054008;28;20436;-74
2022/05/05 08:36:45;;;;;;;10.93;5.82;;;14.40;99.90;;;;;;5052993;28;20041;-74
2022/05/05 08:39:17;;;;;;;7.80;4.90;;;14.40;99.90;;;;;;5053823;28;20186;-76
2022/05/05 08:41:44;;;;;;;7.50;5.75;;;14.30;99.90;;;;;;5053569;28;20050;-72
2022/05/05 08:44:11;;;;;;;8.82;5.82;;;14.30;99.90;;;;;;5052476;28;20048;-66
2022/05/05 08:46:39;;;;;;;7.68;6.13;;;14.40;99.90;;;;;;5054034;28;20092;-68
2022/05/05 08:49:06;;;;;;;6.43;5.20;;;14.40;99.90;;;;;;5053592;28;20123;-68
2022/05/05 08:51:44;;;;;;;8.32;5.53;;;14.40;99.90;;;;;;5052845;28;20049;-73
2022/05/05 08:54:16;;;;;;;6.95;5.28;;;14.50;99.90;;;;;;5053786;28;20055;-74
2022/05/05 08:56:44;;;;;;;7.80;4.95;;;14.50;99.90;;;;;;5052452;28;20055;-74
2022/05/05 08:59:13;;;;;;;7.47;4.80;;;14.60;99.90;;;;;;5052583;28;20036;-74
2022/05/05 09:01:40;;;;;;;9.73;6.05;;;14.60;99.90;;;;;;5054613;28;20040;-73
2022/05/05 09:04:08;;;;;;;9.77;6.35;;;14.80;99.90;;;;;;5052413;28;20048;-77
2022/05/05 09:06:42;;;;;;;7.32;5.13;;;15.00;99.90;;;;;;5054197;28;20040;-70
2022/05/05 09:09:24;;;;;;;7.00;4.50;;;15.20;99.90;;;;;;5052141;28;20053;-78
2022/05/05 09:12:14;;;;;;;6.88;5.25;;;15.40;99.90;;;;;;5053749;28;20044;-72
2022/05/05 09:14:43;;;;;;;;;;;15.40;99.90;;;;;;5053625;28;20044;-73
2022/05/05 09:17:13;;;;;;;10.43;5.22;;;15.20;99.90;;;;;;5052759;28;19916;-77
2022/05/05 09:19:42;;;;;;;5.75;4.53;;;15.40;99.90;;;;;;5053813;28;20041;-74
2022/05/05 09:22:09;;;;;;;;;;;15.50;99.90;;;;;;5054226;28;20052;-77
2022/05/05 09:24:36;;;;;;;7.70;4.75;;;15.70;99.90;;;;;;5054973;28;19975;-78
2022/05/05 09:27:29;;;;;;;6.05;5.10;;;15.80;99.90;;;;;;5052188;28;20047;-76
2022/05/05 09:29:56;;;;;;;6.00;4.85;;;15.90;99.90;;;;;;5053112;28;20110;-71
2022/05/05 09:32:49;;;;;;;6.70;5.57;;;16.10;99.90;;;;;;5053101;28;20045;-76
2022/05/05 09:35:17;;;;;;;7.55;5.40;;;16.30;99.90;;;;;;5053389;28;20041;-76
2022/05/05 09:37:44;;;;;;;9.27;4.97;;;16.30;99.90;;;;;;5053281;28;20041;-78
2022/05/05 09:40:20;;;;;;;7.63;4.53;;;16.40;99.90;;;;;;5053898;28;20119;-78
2022/05/05 09:42:51;;;;;;;6.80;4.72;;;16.50;99.90;;;;;;5051839;28;20480;-75
2022/05/05 09:45:32;;;;;;;5.50;4.28;;;16.50;99.90;;;;;;5052884;28;20124;-76
2022/05/05 09:48:01;;;;;;;6.07;4.88;;;16.60;99.90;;;;;;5053172;28;20045;-77
2022/05/05 09:50:28;;;;;;;;;;;16.50;99.90;;;;;;5053310;28;20171;-64
2022/05/05 09:58:37;;;;;;;11.20;4.50;;;16.70;99.90;;;;;;5053924;28;20441;-72
2022/05/05 10:06:29;;;;;;;6.60;3.30;;;16.60;99.90;;;;;;5051730;28;20087;-68
2022/05/05 10:09:03;;;;;;;6.30;4.35;;;16.80;99.90;;;;;;5052709;28;20047;-63
2022/05/05 10:11:31;;;;;;;27.33;4.82;;;16.80;99.90;;;;;;5052443;28;20045;-73
2022/05/05 10:14:13;;;;;;;5.90;3.40;;;16.80;99.90;;;;;;5051605;28;20041;-71
2022/05/05 10:16:41;;;;;;;4.82;3.50;;;16.80;99.90;;;;;;5053763;28;20089;-74
2022/05/05 10:19:08;;;;;;;16.90;4.15;;;16.70;99.90;;;;;;5051602;28;20071;-68
2022/05/05 10:22:12;;;;;;;3.65;3.13;;;16.70;99.60;;;;;;5051699;28;20147;-69
2022/05/05 10:24:43;;;;;;;8.68;4.18;;;16.70;99.10;;;;;;5052272;28;20071;-67
2022/05/05 10:27:10;;;;;;;6.72;3.83;;;16.70;98.30;;;;;;5054349;28;20045;-72
2022/05/05 10:29:41;;;;;;;66.32;9.00;;;16.80;99.70;;;;;;5038899;28;20098;-71
2022/05/05 10:32:11;;;;;;;13.30;4.20;;;16.80;99.90;;;;;;5056252;28;20041;-69
2022/05/05 10:35:23;;;;;;;5.53;3.33;;;16.80;99.90;;;;;;5056850;28;20037;-70
2022/05/05 10:37:50;;;;;;;12.13;4.18;;;16.90;99.90;;;;;;5054536;28;20051;-73
2022/05/05 10:40:17;;;;;;;8.00;4.30;;;16.90;99.90;;;;;;5038428;28;20052;-67
2022/05/05 10:42:45;;;;;;;5.97;3.97;;;16.90;99.90;;;;;;5054550;28;20495;-75
2022/05/05 10:45:27;;;;;;;7.97;4.25;;;16.90;99.90;;;;;;5056239;28;20052;-66
2022/05/05 10:47:55;;;;;;;5.82;4.18;;;16.90;97.30;;;;;;5055856;28;20045;-73
2022/05/05 10:50:56;;;;;;;6.53;4.00;;;17.00;99.90;;;;;;5056008;28;20480;-69
2022/05/05 10:53:29;;;;;;;33.05;26.40;;;17.30;98.80;;;;;;5055653;28;20061;-71
2022/05/05 10:55:56;;;;;;;7.28;4.85;;;17.40;99.90;;;;;;5056700;28;20064;-71
2022/05/05 10:58:57;;;;;;;6.68;3.80;;;17.40;96.90;;;;;;5054611;28;20072;-69
2022/05/05 11:01:27;;;;;;;5.32;3.30;;;17.30;93.90;;;;;;5056071;28;20041;-74
2022/05/05 11:04:18;;;;;;;6.93;3.50;;;17.30;99.90;;;;;;5054711;28;20067;-67
2022/05/05 11:06:48;;;;;;;8.32;4.50;;;17.30;96.20;;;;;;5055403;28;20084;-70
2022/05/05 11:09:31;;;;;;;4.75;3.30;;;17.10;96.60;;;;;;5055618;28;20041;-68
2022/05/05 11:12:19;;;;;;;5.60;3.42;;;17.20;99.10;;;;;;5054670;28;20048;-69
2022/05/05 11:23:45;;;;;;;5.93;3.45;;;17.40;95.50;;;;;;5055572;28;20433;-66
2022/05/05 11:26:16;;;;;;;40.35;6.43;;;17.40;94.10;;;;;;5054895;28;20131;-67
2022/05/05 11:28:44;;;;;;;7.82;3.42;;;17.60;95.90;;;;;;5054256;28;20052;-63
2022/05/05 11:31:25;;;;;;;7.10;3.90;;;17.80;96.10;;;;;;5055323;28;20037;-63
2022/05/05 11:33:57;;;;;;;5.55;3.90;;;18.00;93.80;;;;;;5055936;28;20266;-64
2022/05/05 11:36:28;;;;;;;9.40;4.50;;;18.00;95.40;;;;;;5056178;28;20051;-63
2022/05/05 11:38:55;;;;;;;8.85;3.85;;;18.00;91.40;;;;;;5055197;28;20045;-61
2022/05/05 11:41:22;;;;;;;5.88;3.83;;;17.90;91.40;;;;;;5054945;28;20098;-61
2022/05/05 11:46:36;;;;;;;9.07;3.90;;;17.80;92.20;;;;;;5056116;28;20095;-61
2022/05/05 11:49:03;;;;;;;6.00;4.23;;;17.80;90.70;;;;;;5055146;28;20045;-61
2022/05/05 11:51:33;;;;;;;6.20;3.53;;;17.90;91.50;;;;;;5053880;28;20063;-61
2022/05/05 11:54:07;;;;;;;6.90;3.38;;;17.90;92.30;;;;;;5054461;28;20041;-61
2022/05/05 11:56:36;;;;;;;4.57;3.22;;;18.10;90.10;;;;;;5054567;28;20044;-70
2022/05/05 12:01:59;;;;;;;4.95;3.28;;;18.10;88.70;;;;;;5055428;28;20045;-65
2022/05/05 12:04:27;;;;;;;5.03;3.42;;;18.10;89.20;;;;;;5054476;28;20128;-65
2022/05/05 12:06:54;;;;;;;7.88;4.00;;;18.10;88.50;;;;;;5054849;28;20037;-65
2022/05/05 12:09:21;;;;;;;5.95;3.95;;;18.10;86.30;;;;;;5054276;28;20047;-65
2022/05/05 12:11:48;;;;;;;3.70;3.08;;;18.00;84.80;;;;;;5054103;28;20056;-65
2022/05/05 12:14:16;;;;;;;6.40;3.85;;;18.10;87.10;;;;;;5054693;28;20044;-65
2022/05/05 12:16:43;;;;;;;5.35;3.58;;;18.20;86.80;;;;;;5053207;28;20045;-65
2022/05/05 12:19:14;;;;;;;4.45;3.75;;;18.30;87.20;;;;;;5053421;28;20413;-64
2022/05/05 12:22:01;;;;;;;5.85;3.83;;;18.30;85.20;;;;;;5053390;28;20052;-65
2022/05/05 12:24:30;;;;;;;4.13;3.50;;;18.40;88.20;;;;;;5054691;28;20469;-65
2022/05/05 12:27:07;;;;;;;3.85;2.65;;;18.40;86.10;;;;;;5053608;28;20053;-66
2022/05/05 12:29:43;;;;;;;4.15;3.00;;;18.60;80.60;;;;;;5052906;28;20051;-65
2022/05/05 12:32:12;;;;;;;6.35;3.40;;;18.50;80.40;;;;;;5054128;28;20045;-65
2022/05/05 12:34:41;;;;;;;5.13;3.03;;;18.30;81.80;;;;;;5054036;28;20128;-65
2022/05/05 12:37:14;;;;;;;6.15;3.55;;;18.40;81.50;;;;;;5053011;28;20041;-62
2022/05/05 12:40:03;;;;;;;5.63;3.72;;;18.40;80.00;;;;;;5055326;28;20075;-63
2022/05/05 12:42:40;;;;;;;6.75;3.22;;;18.30;79.90;;;;;;5052852;28;20049;-63
2022/05/05 12:45:20;;;;;;;4.93;3.85;;;18.50;82.70;;;;;;5053857;28;20140;-62
2022/05/05 12:47:49;;;;;;;6.32;4.20;;;18.70;80.20;;;;;;5053831;28;20094;-63
2022/05/05 12:50:46;;;;;;;4.83;3.50;;;18.80;80.20;;;;;;5053080;28;20048;-63
2022/05/05 13:01:39;;;;;;;5.25;4.03;;;18.60;79.80;;;;;;5053728;28;20419;-63
2022/05/05 13:04:15;;;;;;;9.13;4.05;;;18.60;79.00;;;;;;5052234;28;20148;-63
2022/05/05 13:06:43;;;;;;;4.63;3.70;;;18.70;79.30;;;;;;5052301;28;20556;-63
2022/05/05 13:09:11;;;;;;;5.10;3.38;;;18.70;77.50;;;;;;5052206;28;20095;-63
2022/05/05 13:11:41;;;;;;;4.53;3.35;;;18.70;78.40;;;;;;5053407;28;20041;-63
2022/05/05 13:14:08;;;;;;;6.20;3.42;;;18.80;79.10;;;;;;5053118;28;20040;-63
2022/05/05 13:16:35;;;;;;;5.25;3.60;;;18.80;77.30;;;;;;5054181;28;20083;-63
2022/05/05 13:19:03;;;;;;;5.13;4.05;;;18.70;76.30;;;;;;5052471;28;20064;-63
2022/05/05 13:21:30;;;;;;;5.10;3.78;;;18.70;78.20;;;;;;5053566;28;20534;-63
2022/05/05 13:23:57;;;;;;;5.72;3.95;;;18.90;79.60;;;;;;5052817;28;20064;-63
2022/05/05 13:26:25;;;;;;;6.50;4.05;;;18.90;77.70;;;;;;5052045;28;20052;-63
2022/05/05 13:28:52;;;;;;;9.40;4.57;;;19.10;78.70;;;;;;5053200;28;20123;-63
2022/05/05 13:31:19;;;;;;;5.30;3.53;;;19.00;75.80;;;;;;5052293;28;20056;-63
2022/05/05 13:33:46;;;;;;;4.43;3.20;;;18.80;76.90;;;;;;5053143;28;20049;-62
2022/05/05 13:36:13;;;;;;;6.47;4.25;;;18.70;77.50;;;;;;5053047;28;20122;-70
2022/05/05 13:38:41;;;;;;;5.82;3.97;;;18.60;76.00;;;;;;5052033;28;20053;-71
2022/05/05 13:41:28;;;;;;;4.82;3.30;;;18.60;77.00;;;;;;5052254;28;20427;-69
2022/05/05 13:43:54;;;;;;;8.02;3.20;;;18.60;77.70;;;;;;5052162;28;20068;-69
2022/05/05 13:46:21;;;;;;;7.95;3.63;;;18.80;78.10;;;;;;5053638;28;20072;-70
2022/05/05 13:48:49;;;;;;;6.75;3.08;;;18.90;75.80;;;;;;5053019;28;20048;-69
2022/05/05 13:51:15;;;;;;;5.35;2.90;;;19.00;77.30;;;;;;5053002;28;20060;-70
2022/05/05 13:53:42;;;;;;;5.22;3.83;;;19.10;75.60;;;;;;5054041;28;20045;-68
2022/05/05 13:56:11;;;;;;;8.23;4.70;;;19.20;75.50;;;;;;5051748;28;20041;-71